sensor_id;sensor_type;location;lat;lon;timestamp;pressure;altitude;pressure_sealevel;temperature;humidity
24230;BME280;12362;50.004;8.006;2024-02-28T00:01:24;100806.06;;;5.63;100.00
24230;BME280;12362;50.004;8.006;2024-02-28T00:03:50;100812.28;;;5.53;100.00
24230;BME280;12362;50.004;8.006;2024-02-28T00:06:16;100812.34;;;5.52;100.00
24230;BME280;12362;50.004;8.006;2024-02-28T00:08:42;100814.97;;;5.50;100.00
24230;BME280;12362;50.004;8.006;2024-02-28T00:11:08;100822.53;;;5.56;100.00
24230;BME280;12362;50.004;8.006;2024-02-28T00:13:33;100825.94;;;5.58;100.00
24230;BME280;12362;50.004;8.006;2024-02-28T00:15:59;100827.63;;;5.58;100.00
24230;BME280;12362;50.004;8.006;2024-02-28T00:18:24;100828.25;;;5.69;100.00
24230;BME280;12362;50.004;8.006;2024-02-28T00:20:50;100830.03;;;5.67;100.00
24230;BME280;12362;50.004;8.006;2024-02-28T00:23:15;100832.72;;;5.61;100.00
24230;BME280;12362;50.004;8.006;2024-02-28T00:25:41;100829.53;;;5.50;100.00
24230;BME280;12362;50.004;8.006;2024-02-28T00:28:06;100838.41;;;5.37;100.00
24230;BME280;12362;50.004;8.006;2024-02-28T00:30:32;100832.56;;;5.29;100.00
24230;BME280;12362;50.004;8.006;2024-02-28T00:32:59;100834.84;;;5.42;100.00
24230;BME280;12362;50.004;8.006;2024-02-28T00:35:24;100832.19;;;5.47;100.00
24230;BME280;12362;50.004;8.006;2024-02-28T00:37:50;100837.31;;;5.48;100.00
24230;BME280;12362;50.004;8.006;2024-02-28T00:40:15;100844.91;;;5.54;100.00
24230;BME280;12362;50.004;8.006;2024-02-28T00:42:40;100849.22;;;5.52;100.00
24230;BME280;12362;50.004;8.006;2024-02-28T00:45:08;100838.25;;;5.44;100.00
24230;BME280;12362;50.004;8.006;2024-02-28T00:47:34;100848.59;;;5.43;100.00
24230;BME280;12362;50.004;8.006;2024-02-28T00:49:59;100858.06;;;5.41;100.00
24230;BME280;12362;50.004;8.006;2024-02-28T00:52:25;100854.00;;;5.30;100.00
24230;BME280;12362;50.004;8.006;2024-02-28T00:54:51;100857.59;;;5.21;100.00
24230;BME280;12362;50.004;8.006;2024-02-28T00:57:16;100861.88;;;5.22;100.00
24230;BME280;12362;50.004;8.006;2024-02-28T00:59:42;100868.00;;;5.17;100.00
24230;BME280;12362;50.004;8.006;2024-02-28T01:02:08;100865.56;;;5.11;100.00
24230;BME280;12362;50.004;8.006;2024-02-28T01:04:33;100874.75;;;5.22;100.00
24230;BME280;12362;50.004;8.006;2024-02-28T01:06:59;100872.97;;;5.26;100.00
24230;BME280;12362;50.004;8.006;2024-02-28T01:09:24;100870.56;;;5.17;100.00
24230;BME280;12362;50.004;8.006;2024-02-28T01:11:50;100864.53;;;5.19;100.00
24230;BME280;12362;50.004;8.006;2024-02-28T01:14:16;100871.97;;;5.33;100.00
24230;BME280;12362;50.004;8.006;2024-02-28T01:16:41;100863.38;;;5.34;100.00
24230;BME280;12362;50.004;8.006;2024-02-28T01:19:07;100872.59;;;5.43;100.00
24230;BME280;12362;50.004;8.006;2024-02-28T01:21:32;100876.75;;;5.50;100.00
24230;BME280;12362;50.004;8.006;2024-02-28T01:23:58;100875.91;;;5.50;100.00
24230;BME280;12362;50.004;8.006;2024-02-28T01:26:23;100878.53;;;5.47;100.00
24230;BME280;12362;50.004;8.006;2024-02-28T01:28:49;100870.81;;;5.47;100.00
24230;BME280;12362;50.004;8.006;2024-02-28T01:31:15;100874.19;;;5.49;100.00
24230;BME280;12362;50.004;8.006;2024-02-28T01:33:40;100876.06;;;5.42;100.00
24230;BME280;12362;50.004;8.006;2024-02-28T01:36:07;100874.38;;;5.40;100.00
24230;BME280;12362;50.004;8.006;2024-02-28T01:38:32;100866.72;;;5.37;100.00
24230;BME280;12362;50.004;8.006;2024-02-28T01:40:58;100872.84;;;5.32;100.00
24230;BME280;12362;50.004;8.006;2024-02-28T01:43:23;100870.38;;;5.27;100.00
24230;BME280;12362;50.004;8.006;2024-02-28T01:45:50;100874.00;;;5.17;100.00
24230;BME280;12362;50.004;8.006;2024-02-28T01:48:15;100870.78;;;5.06;100.00
24230;BME280;12362;50.004;8.006;2024-02-28T01:50:41;100882.44;;;4.78;100.00
24230;BME280;12362;50.004;8.006;2024-02-28T01:53:08;100878.47;;;4.61;100.00
24230;BME280;12362;50.004;8.006;2024-02-28T01:55:35;100878.59;;;4.53;100.00
24230;BME280;12362;50.004;8.006;2024-02-28T01:58:02;100870.41;;;4.32;100.00
24230;BME280;12362;50.004;8.006;2024-02-28T02:00:32;100872.28;;;4.21;100.00
24230;BME280;12362;50.004;8.006;2024-02-28T02:02:58;100880.09;;;4.15;100.00
24230;BME280;12362;50.004;8.006;2024-02-28T02:05:24;100878.44;;;4.11;100.00
24230;BME280;12362;50.004;8.006;2024-02-28T02:07:50;100877.69;;;4.05;100.00
24230;BME280;12362;50.004;8.006;2024-02-28T02:10:16;100881.91;;;4.09;100.00
24230;BME280;12362;50.004;8.006;2024-02-28T02:12:41;100877.72;;;4.03;100.00
24230;BME280;12362;50.004;8.006;2024-02-28T02:15:07;100885.50;;;3.97;100.00
24230;BME280;12362;50.004;8.006;2024-02-28T02:17:32;100887.25;;;3.95;100.00
24230;BME280;12362;50.004;8.006;2024-02-28T02:19:58;100882.91;;;3.97;100.00
24230;BME280;12362;50.004;8.006;2024-02-28T02:22:27;100890.63;;;3.99;100.00
24230;BME280;12362;50.004;8.006;2024-02-28T02:24:57;100888.22;;;3.87;100.00
24230;BME280;12362;50.004;8.006;2024-02-28T02:27:24;100899.69;;;3.62;100.00
24230;BME280;12362;50.004;8.006;2024-02-28T02:29:51;100904.97;;;3.50;100.00
24230;BME280;12362;50.004;8.006;2024-02-28T02:32:16;100903.25;;;3.52;100.00
24230;BME280;12362;50.004;8.006;2024-02-28T02:34:42;100894.78;;;3.46;100.00
24230;BME280;12362;50.004;8.006;2024-02-28T02:37:07;100899.91;;;3.46;100.00
24230;BME280;12362;50.004;8.006;2024-02-28T02:39:34;100903.53;;;3.28;100.00
24230;BME280;12362;50.004;8.006;2024-02-28T02:42:00;100901.28;;;3.00;100.00
24230;BME280;12362;50.004;8.006;2024-02-28T02:44:25;100903.94;;;2.91;100.00
24230;BME280;12362;50.004;8.006;2024-02-28T02:46:51;100900.38;;;3.04;100.00
24230;BME280;12362;50.004;8.006;2024-02-28T02:49:16;100902.09;;;3.06;100.00
24230;BME280;12362;50.004;8.006;2024-02-28T02:51:44;100901.31;;;2.97;100.00
24230;BME280;12362;50.004;8.006;2024-02-28T02:54:10;100898.84;;;2.86;100.00
24230;BME280;12362;50.004;8.006;2024-02-28T02:56:36;100902.41;;;2.72;100.00
24230;BME280;12362;50.004;8.006;2024-02-28T02:59:01;100908.53;;;2.58;100.00
24230;BME280;12362;50.004;8.006;2024-02-28T03:01:27;100912.84;;;2.53;100.00
24230;BME280;12362;50.004;8.006;2024-02-28T03:03:52;100912.88;;;2.51;100.00
24230;BME280;12362;50.004;8.006;2024-02-28T03:06:18;100918.97;;;2.37;100.00
24230;BME280;12362;50.004;8.006;2024-02-28T03:08:43;100913.88;;;2.28;100.00
24230;BME280;12362;50.004;8.006;2024-02-28T03:11:09;100924.09;;;2.37;100.00
24230;BME280;12362;50.004;8.006;2024-02-28T03:13:34;100927.53;;;2.31;100.00
24230;BME280;12362;50.004;8.006;2024-02-28T03:16:00;100925.84;;;2.30;100.00
24230;BME280;12362;50.004;8.006;2024-02-28T03:18:25;100932.78;;;2.10;100.00
24230;BME280;12362;50.004;8.006;2024-02-28T03:20:51;100937.94;;;2.07;100.00
24230;BME280;12362;50.004;8.006;2024-02-28T03:23:16;100937.16;;;1.95;100.00
24230;BME280;12362;50.004;8.006;2024-02-28T03:25:42;100943.16;;;1.91;100.00
24230;BME280;12362;50.004;8.006;2024-02-28T03:28:07;100943.97;;;2.00;100.00
24230;BME280;12362;50.004;8.006;2024-02-28T03:30:33;100950.72;;;2.12;100.00
24230;BME280;12362;50.004;8.006;2024-02-28T03:32:59;100954.94;;;2.16;100.00
24230;BME280;12362;50.004;8.006;2024-02-28T03:35:24;100943.78;;;2.27;100.00
24230;BME280;12362;50.004;8.006;2024-02-28T03:37:49;100962.56;;;2.28;100.00
24230;BME280;12362;50.004;8.006;2024-02-28T03:40:15;100964.31;;;2.20;100.00
24230;BME280;12362;50.004;8.006;2024-02-28T03:42:40;100977.09;;;2.24;100.00
24230;BME280;12362;50.004;8.006;2024-02-28T03:45:06;100974.50;;;2.30;100.00
24230;BME280;12362;50.004;8.006;2024-02-28T03:47:32;100974.59;;;2.15;100.00
24230;BME280;12362;50.004;8.006;2024-02-28T03:49:57;100975.47;;;2.08;100.00
24230;BME280;12362;50.004;8.006;2024-02-28T03:52:24;100978.88;;;2.16;100.00
24230;BME280;12362;50.004;8.006;2024-02-28T03:54:50;100975.41;;;2.22;100.00
24230;BME280;12362;50.004;8.006;2024-02-28T03:57:15;100983.91;;;2.27;100.00
24230;BME280;12362;50.004;8.006;2024-02-28T03:59:41;100982.22;;;2.27;100.00
24230;BME280;12362;50.004;8.006;2024-02-28T04:02:07;100986.50;;;2.25;100.00
24230;BME280;12362;50.004;8.006;2024-02-28T04:04:32;101000.16;;;2.27;100.00
24230;BME280;12362;50.004;8.006;2024-02-28T04:06:58;100994.13;;;2.31;100.00
24230;BME280;12362;50.004;8.006;2024-02-28T04:09:23;101000.16;;;2.24;100.00
24230;BME280;12362;50.004;8.006;2024-02-28T04:11:49;101005.38;;;2.08;100.00
24230;BME280;12362;50.004;8.006;2024-02-28T04:14:14;101007.13;;;1.98;100.00
24230;BME280;12362;50.004;8.006;2024-02-28T04:16:41;101011.34;;;2.07;100.00
24230;BME280;12362;50.004;8.006;2024-02-28T04:19:09;101010.50;;;2.03;100.00
24230;BME280;12362;50.004;8.006;2024-02-28T04:21:35;101007.13;;;1.97;100.00
24230;BME280;12362;50.004;8.006;2024-02-28T04:24:00;101021.63;;;1.99;100.00
24230;BME280;12362;50.004;8.006;2024-02-28T04:26:26;101013.94;;;1.99;100.00
24230;BME280;12362;50.004;8.006;2024-02-28T04:28:51;101014.81;;;1.97;100.00
24230;BME280;12362;50.004;8.006;2024-02-28T04:31:17;101025.94;;;1.91;100.00
24230;BME280;12362;50.004;8.006;2024-02-28T04:33:42;101025.94;;;1.88;100.00
24230;BME280;12362;50.004;8.006;2024-02-28T04:36:08;101029.44;;;1.61;100.00
24230;BME280;12362;50.004;8.006;2024-02-28T04:38:33;101032.84;;;1.55;100.00
24230;BME280;12362;50.004;8.006;2024-02-28T04:40:59;101036.25;;;1.65;100.00
24230;BME280;12362;50.004;8.006;2024-02-28T04:43:24;101036.25;;;1.71;100.00
24230;BME280;12362;50.004;8.006;2024-02-28T04:45:50;101045.63;;;1.70;100.00
24230;BME280;12362;50.004;8.006;2024-02-28T04:48:15;101045.59;;;1.75;100.00
24230;BME280;12362;50.004;8.006;2024-02-28T04:50:41;101034.50;;;1.80;100.00
24230;BME280;12362;50.004;8.006;2024-02-28T04:53:06;101028.56;;;1.62;100.00
24230;BME280;12362;50.004;8.006;2024-02-28T04:55:32;101042.25;;;1.56;100.00
24230;BME280;12362;50.004;8.006;2024-02-28T04:57:57;101053.34;;;1.57;100.00
24230;BME280;12362;50.004;8.006;2024-02-28T05:00:23;101053.34;;;1.60;100.00
24230;BME280;12362;50.004;8.006;2024-02-28T05:02:48;101058.47;;;1.52;100.00
24230;BME280;12362;50.004;8.006;2024-02-28T05:05:14;101071.25;;;1.46;100.00
24230;BME280;12362;50.004;8.006;2024-02-28T05:07:39;101066.16;;;1.40;100.00
24230;BME280;12362;50.004;8.006;2024-02-28T05:10:05;101064.44;;;1.48;100.00
24230;BME280;12362;50.004;8.006;2024-02-28T05:12:31;101068.69;;;1.51;100.00
24230;BME280;12362;50.004;8.006;2024-02-28T05:14:57;101062.75;;;1.50;100.00
24230;BME280;12362;50.004;8.006;2024-02-28T05:17:22;101069.53;;;1.54;100.00
24230;BME280;12362;50.004;8.006;2024-02-28T05:19:47;101065.28;;;1.44;100.00
24230;BME280;12362;50.004;8.006;2024-02-28T05:22:13;101065.31;;;1.43;100.00
24230;BME280;12362;50.004;8.006;2024-02-28T05:24:39;101073.84;;;1.37;100.00
24230;BME280;12362;50.004;8.006;2024-02-28T05:27:04;101079.81;;;1.35;100.00
24230;BME280;12362;50.004;8.006;2024-02-28T05:29:30;101083.22;;;1.38;100.00
24230;BME280;12362;50.004;8.006;2024-02-28T05:31:58;101088.31;;;1.43;100.00
24230;BME280;12362;50.004;8.006;2024-02-28T05:34:24;101085.75;;;1.43;100.00
24230;BME280;12362;50.004;8.006;2024-02-28T05:36:50;101087.47;;;1.45;100.00
24230;BME280;12362;50.004;8.006;2024-02-28T05:39:16;101095.16;;;1.21;100.00
24230;BME280;12362;50.004;8.006;2024-02-28T05:41:41;101101.13;;;1.07;100.00
24230;BME280;12362;50.004;8.006;2024-02-28T05:44:07;101101.13;;;1.16;100.00
24230;BME280;12362;50.004;8.006;2024-02-28T05:46:33;101096.88;;;1.21;100.00
24230;BME280;12362;50.004;8.006;2024-02-28T05:48:59;101107.94;;;1.20;100.00
24230;BME280;12362;50.004;8.006;2024-02-28T05:51:24;101101.97;;;1.16;100.00
24230;BME280;12362;50.004;8.006;2024-02-28T05:53:50;101103.66;;;1.08;100.00
24230;BME280;12362;50.004;8.006;2024-02-28T05:56:16;101105.38;;;1.12;100.00
24230;BME280;12362;50.004;8.006;2024-02-28T05:58:46;101097.69;;;1.21;100.00
24230;BME280;12362;50.004;8.006;2024-02-28T06:01:14;101109.66;;;1.16;100.00
24230;BME280;12362;50.004;8.006;2024-02-28T06:03:40;101111.34;;;0.99;100.00
24230;BME280;12362;50.004;8.006;2024-02-28T06:06:05;101116.44;;;0.99;100.00
24230;BME280;12362;50.004;8.006;2024-02-28T06:08:33;101106.22;;;1.16;100.00
24230;BME280;12362;50.004;8.006;2024-02-28T06:10:58;101111.34;;;1.16;100.00
24230;BME280;12362;50.004;8.006;2024-02-28T06:13:24;101118.19;;;1.15;100.00
24230;BME280;12362;50.004;8.006;2024-02-28T06:15:49;101124.13;;;1.16;100.00
24230;BME280;12362;50.004;8.006;2024-02-28T06:18:15;101136.06;;;0.94;100.00
24230;BME280;12362;50.004;8.006;2024-02-28T06:20:40;101140.31;;;1.00;100.00
24230;BME280;12362;50.004;8.006;2024-02-28T06:23:07;101144.56;;;0.93;100.00
24230;BME280;12362;50.004;8.006;2024-02-28T06:25:32;101145.41;;;0.85;100.00
24230;BME280;12362;50.004;8.006;2024-02-28T06:27:59;101153.06;;;0.98;100.00
24230;BME280;12362;50.004;8.006;2024-02-28T06:30:25;101153.97;;;1.06;100.00
24230;BME280;12362;50.004;8.006;2024-02-28T06:32:51;101156.50;;;1.17;100.00
24230;BME280;12362;50.004;8.006;2024-02-28T06:35:17;101145.44;;;1.22;100.00
24230;BME280;12362;50.004;8.006;2024-02-28T06:37:43;101154.81;;;1.35;100.00
24230;BME280;12362;50.004;8.006;2024-02-28T06:40:15;101157.38;;;1.43;100.00
24230;BME280;12362;50.004;8.006;2024-02-28T06:42:41;101160.81;;;1.40;100.00
24230;BME280;12362;50.004;8.006;2024-02-28T06:45:06;101165.91;;;1.54;100.00
24230;BME280;12362;50.004;8.006;2024-02-28T06:47:34;101165.91;;;1.40;100.00
24230;BME280;12362;50.004;8.006;2024-02-28T06:49:59;101180.41;;;1.44;100.00
24230;BME280;12362;50.004;8.006;2024-02-28T06:52:25;101169.31;;;1.51;100.00
24230;BME280;12362;50.004;8.006;2024-02-28T06:54:50;101170.16;;;1.59;100.00
24230;BME280;12362;50.004;8.006;2024-02-28T06:57:16;101160.78;;;1.67;100.00
24230;BME280;12362;50.004;8.006;2024-02-28T06:59:42;101165.91;;;1.66;100.00
24230;BME280;12362;50.004;8.006;2024-02-28T07:02:08;101161.63;;;1.65;100.00
24230;BME280;12362;50.004;8.006;2024-02-28T07:04:33;101181.28;;;1.64;100.00
24230;BME280;12362;50.004;8.006;2024-02-28T07:06:59;101179.56;;;1.75;100.00
24230;BME280;12362;50.004;8.006;2024-02-28T07:09:24;101186.38;;;1.85;100.00
24230;BME280;12362;50.004;8.006;2024-02-28T07:11:56;101190.63;;;2.01;100.00
24230;BME280;12362;50.004;8.006;2024-02-28T07:14:21;101193.16;;;2.10;100.00
24230;BME280;12362;50.004;8.006;2024-02-28T07:16:47;101183.72;;;2.15;100.00
24230;BME280;12362;50.004;8.006;2024-02-28T07:19:12;101175.19;;;2.22;100.00
24230;BME280;12362;50.004;8.006;2024-02-28T07:21:37;101170.06;;;2.23;100.00
24230;BME280;12362;50.004;8.006;2024-02-28T07:24:03;101188.00;;;2.11;100.00
24230;BME280;12362;50.004;8.006;2024-02-28T07:26:30;101189.72;;;2.09;100.00
24230;BME280;12362;50.004;8.006;2024-02-28T07:28:56;101199.09;;;2.21;100.00
24230;BME280;12362;50.004;8.006;2024-02-28T07:31:21;101195.66;;;2.26;100.00
24230;BME280;12362;50.004;8.006;2024-02-28T07:33:47;101198.19;;;2.35;100.00
24230;BME280;12362;50.004;8.006;2024-02-28T07:36:13;101194.75;;;2.45;100.00
24230;BME280;12362;50.004;8.006;2024-02-28T07:38:38;101201.56;;;2.54;100.00
24230;BME280;12362;50.004;8.006;2024-02-28T07:41:06;101199.81;;;2.63;100.00
24230;BME280;12362;50.004;8.006;2024-02-28T07:43:31;101210.84;;;2.81;100.00
24230;BME280;12362;50.004;8.006;2024-02-28T07:46:02;101208.22;;;2.93;100.00
24230;BME280;12362;50.004;8.006;2024-02-28T07:48:31;101201.28;;;3.06;100.00
24230;BME280;12362;50.004;8.006;2024-02-28T07:50:56;101203.78;;;3.21;100.00
24230;BME280;12362;50.004;8.006;2024-02-28T07:53:22;101203.63;;;3.43;100.00
24230;BME280;12362;50.004;8.006;2024-02-28T07:55:47;101200.06;;;3.59;100.00
24230;BME280;12362;50.004;8.006;2024-02-28T07:58:14;101199.09;;;3.73;100.00
24230;BME280;12362;50.004;8.006;2024-02-28T08:00:41;101194.75;;;3.81;100.00
24230;BME280;12362;50.004;8.006;2024-02-28T08:03:07;101195.50;;;3.92;100.00
24230;BME280;12362;50.004;8.006;2024-02-28T08:05:32;101197.94;;;4.07;100.00
24230;BME280;12362;50.004;8.006;2024-02-28T08:08:05;101191.78;;;4.22;100.00
24230;BME280;12362;50.004;8.006;2024-02-28T08:10:30;101190.00;;;4.27;100.00
24230;BME280;12362;50.004;8.006;2024-02-28T08:12:56;101192.41;;;4.43;100.00
24230;BME280;12362;50.004;8.006;2024-02-28T08:15:23;101193.13;;;4.54;100.00
24230;BME280;12362;50.004;8.006;2024-02-28T08:17:48;101186.16;;;4.62;100.00
24230;BME280;12362;50.004;8.006;2024-02-28T08:20:14;101182.72;;;4.63;100.00
24230;BME280;12362;50.004;8.006;2024-02-28T08:22:39;101186.84;;;4.76;100.00
24230;BME280;12362;50.004;8.006;2024-02-28T08:25:05;101187.50;;;4.91;100.00
24230;BME280;12362;50.004;8.006;2024-02-28T08:27:31;101182.94;;;5.10;100.00
24230;BME280;12362;50.004;8.006;2024-02-28T08:29:59;101191.34;;;5.22;100.00
24230;BME280;12362;50.004;8.006;2024-02-28T08:32:24;101193.69;;;5.38;100.00
24230;BME280;12362;50.004;8.006;2024-02-28T08:34:50;101197.75;;;5.53;100.00
24230;BME280;12362;50.004;8.006;2024-02-28T08:37:16;101188.16;;;5.62;100.00
24230;BME280;12362;50.004;8.006;2024-02-28T08:39:42;101187.75;;;5.86;100.00
24230;BME280;12362;50.004;8.006;2024-02-28T08:42:08;101186.66;;;5.99;100.00
24230;BME280;12362;50.004;8.006;2024-02-28T08:44:33;101191.81;;;6.44;100.00
24230;BME280;12362;50.004;8.006;2024-02-28T08:46:59;101188.91;;;6.61;100.00
24230;BME280;12362;50.004;8.006;2024-02-28T08:49:24;101204.03;;;6.79;100.00
24230;BME280;12362;50.004;8.006;2024-02-28T08:51:49;101196.56;;;7.06;100.00
24230;BME280;12362;50.004;8.006;2024-02-28T08:54:15;101202.88;;;7.31;100.00
24230;BME280;12362;50.004;8.006;2024-02-28T08:56:40;101201.72;;;7.44;100.00
24230;BME280;12362;50.004;8.006;2024-02-28T08:59:07;101196.13;;;7.24;100.00
24230;BME280;12362;50.004;8.006;2024-02-28T09:01:32;101196.44;;;7.47;100.00
24230;BME280;12362;50.004;8.006;2024-02-28T09:04:02;101190.63;;;7.75;100.00
24230;BME280;12362;50.004;8.006;2024-02-28T09:06:27;101204.84;;;7.91;100.00
24230;BME280;12362;50.004;8.006;2024-02-28T09:08:53;101205.38;;;8.37;100.00
24230;BME280;12362;50.004;8.006;2024-02-28T09:11:18;101201.31;;;8.28;100.00
24230;BME280;12362;50.004;8.006;2024-02-28T09:13:43;101194.56;;;8.53;100.00
24230;BME280;12362;50.004;8.006;2024-02-28T09:16:09;101183.75;;;8.70;100.00
24230;BME280;12362;50.004;8.006;2024-02-28T09:18:35;101193.88;;;8.77;100.00
24230;BME280;12362;50.004;8.006;2024-02-28T09:21:00;101195.03;;;8.96;100.00
24230;BME280;12362;50.004;8.006;2024-02-28T09:23:26;101196.66;;;8.71;100.00
24230;BME280;12362;50.004;8.006;2024-02-28T09:25:51;101193.75;;;9.10;100.00
24230;BME280;12362;50.004;8.006;2024-02-28T09:28:17;101191.22;;;9.07;100.00
24230;BME280;12362;50.004;8.006;2024-02-28T09:30:43;101183.94;;;9.47;100.00
24230;BME280;12362;50.004;8.006;2024-02-28T09:33:09;101177.88;;;9.74;100.00
24230;BME280;12362;50.004;8.006;2024-02-28T09:35:35;101175.97;;;9.53;100.00
24230;BME280;12362;50.004;8.006;2024-02-28T09:38:02;101179.91;;;9.65;100.00
24230;BME280;12362;50.004;8.006;2024-02-28T09:40:27;101173.63;;;9.72;100.00
24230;BME280;12362;50.004;8.006;2024-02-28T09:43:04;101174.00;;;10.11;100.00
24230;BME280;12362;50.004;8.006;2024-02-28T09:45:31;101171.06;;;9.96;100.00
24230;BME280;12362;50.004;8.006;2024-02-28T09:48:00;101171.25;;;9.90;100.00
24230;BME280;12362;50.004;8.006;2024-02-28T09:50:26;101170.34;;;10.41;100.00
24230;BME280;12362;50.004;8.006;2024-02-28T09:52:53;101163.94;;;10.74;100.00
24230;BME280;12362;50.004;8.006;2024-02-28T09:55:19;101171.97;;;11.12;100.00
24230;BME280;12362;50.004;8.006;2024-02-28T09:57:47;101167.47;;;10.94;100.00
24230;BME280;12362;50.004;8.006;2024-02-28T10:00:13;101164.78;;;11.19;100.00
24230;BME280;12362;50.004;8.006;2024-02-28T10:02:40;101168.28;;;11.18;100.00
24230;BME280;12362;50.004;8.006;2024-02-28T10:05:06;101153.94;;;11.51;100.00
24230;BME280;12362;50.004;8.006;2024-02-28T10:07:33;101157.63;;;11.45;100.00
24230;BME280;12362;50.004;8.006;2024-02-28T10:09:58;101166.69;;;11.14;100.00
24230;BME280;12362;50.004;8.006;2024-02-28T10:12:24;101166.16;;;11.49;100.00
24230;BME280;12362;50.004;8.006;2024-02-28T10:14:50;101163.84;;;11.64;100.00
24230;BME280;12362;50.004;8.006;2024-02-28T10:17:18;101160.59;;;12.19;100.00
24230;BME280;12362;50.004;8.006;2024-02-28T10:19:44;101159.66;;;12.40;100.00
24230;BME280;12362;50.004;8.006;2024-02-28T10:22:10;101157.16;;;12.18;100.00
24230;BME280;12362;50.004;8.006;2024-02-28T10:24:35;101161.91;;;12.09;100.00
24230;BME280;12362;50.004;8.006;2024-02-28T10:27:03;101155.38;;;12.39;100.00
24230;BME280;12362;50.004;8.006;2024-02-28T10:29:29;101144.69;;;13.01;100.00
24230;BME280;12362;50.004;8.006;2024-02-28T10:31:55;101139.28;;;13.58;100.00
24230;BME280;12362;50.004;8.006;2024-02-28T10:34:21;101149.03;;;13.88;96.20
24230;BME280;12362;50.004;8.006;2024-02-28T10:36:46;101145.34;;;13.59;95.75
24230;BME280;12362;50.004;8.006;2024-02-28T10:39:13;101146.66;;;13.50;97.86
24230;BME280;12362;50.004;8.006;2024-02-28T10:41:39;101147.28;;;14.06;94.79
24230;BME280;12362;50.004;8.006;2024-02-28T10:44:05;101146.75;;;14.16;86.83
24230;BME280;12362;50.004;8.006;2024-02-28T10:46:31;101165.59;;;12.62;89.65
24230;BME280;12362;50.004;8.006;2024-02-28T10:48:57;101161.63;;;12.73;92.82
24230;BME280;12362;50.004;8.006;2024-02-28T10:51:26;101154.25;;;13.55;94.58
24230;BME280;12362;50.004;8.006;2024-02-28T10:54:09;101151.63;;;13.55;95.18
24230;BME280;12362;50.004;8.006;2024-02-28T10:56:38;101157.09;;;13.84;86.62
24230;BME280;12362;50.004;8.006;2024-02-28T10:59:09;101153.56;;;13.85;88.34
24230;BME280;12362;50.004;8.006;2024-02-28T11:01:42;101156.28;;;14.17;86.40
24230;BME280;12362;50.004;8.006;2024-02-28T11:04:09;101152.72;;;14.35;86.30
24230;BME280;12362;50.004;8.006;2024-02-28T11:09:03;101149.28;;;14.67;81.76
24230;BME280;12362;50.004;8.006;2024-02-28T11:11:32;101157.81;;;14.21;81.74
24230;BME280;12362;50.004;8.006;2024-02-28T11:13:58;101173.97;;;12.31;95.10
24230;BME280;12362;50.004;8.006;2024-02-28T11:16:27;101151.91;;;13.32;91.86
24230;BME280;12362;50.004;8.006;2024-02-28T11:18:53;101142.91;;;13.72;88.74
24230;BME280;12362;50.004;8.006;2024-02-28T11:21:26;101141.06;;;14.25;79.27
24230;BME280;12362;50.004;8.006;2024-02-28T11:23:57;101149.22;;;14.19;76.38
24230;BME280;12362;50.004;8.006;2024-02-28T11:26:26;101159.72;;;13.32;86.97
24230;BME280;12362;50.004;8.006;2024-02-28T11:28:56;101155.75;;;13.77;81.79
24230;BME280;12362;50.004;8.006;2024-02-28T11:31:22;101141.84;;;13.93;83.66
24230;BME280;12362;50.004;8.006;2024-02-28T11:33:47;101147.59;;;13.83;79.79
24230;BME280;12362;50.004;8.006;2024-02-28T11:36:13;101137.75;;;14.05;78.30
24230;BME280;12362;50.004;8.006;2024-02-28T11:38:40;101146.53;;;14.53;83.77
24230;BME280;12362;50.004;8.006;2024-02-28T11:41:06;101137.75;;;15.02;76.26
24230;BME280;12362;50.004;8.006;2024-02-28T11:43:32;101143.47;;;14.45;73.81
24230;BME280;12362;50.004;8.006;2024-02-28T11:46:00;101140.53;;;14.83;75.05
24230;BME280;12362;50.004;8.006;2024-02-28T11:48:25;101140.78;;;14.47;74.75
24230;BME280;12362;50.004;8.006;2024-02-28T11:50:54;101145.41;;;14.42;76.55
24230;BME280;12362;50.004;8.006;2024-02-28T11:53:19;101145.34;;;13.75;80.15
24230;BME280;12362;50.004;8.006;2024-02-28T11:55:48;101142.59;;;13.78;83.57
24230;BME280;12362;50.004;8.006;2024-02-28T11:58:14;101142.50;;;13.63;81.84
24230;BME280;12362;50.004;8.006;2024-02-28T12:00:47;101135.13;;;15.02;73.61
24230;BME280;12362;50.004;8.006;2024-02-28T12:03:13;101124.06;;;15.12;74.16
24230;BME280;12362;50.004;8.006;2024-02-28T12:05:38;101127.97;;;15.65;70.90
24230;BME280;12362;50.004;8.006;2024-02-28T12:08:04;101125.59;;;15.16;72.26
24230;BME280;12362;50.004;8.006;2024-02-28T12:10:30;101132.66;;;14.68;73.04
24230;BME280;12362;50.004;8.006;2024-02-28T12:13:00;101122.81;;;15.04;70.66
24230;BME280;12362;50.004;8.006;2024-02-28T12:15:29;101122.09;;;14.22;72.36
24230;BME280;12362;50.004;8.006;2024-02-28T12:17:54;101115.66;;;14.92;70.98
24230;BME280;12362;50.004;8.006;2024-02-28T12:20:20;101112.25;;;14.27;74.13
24230;BME280;12362;50.004;8.006;2024-02-28T12:22:45;101107.72;;;14.30;74.71
24230;BME280;12362;50.004;8.006;2024-02-28T12:25:11;101119.13;;;14.60;72.14
24230;BME280;12362;50.004;8.006;2024-02-28T12:27:36;101112.97;;;14.46;71.58
24230;BME280;12362;50.004;8.006;2024-02-28T12:30:02;101112.03;;;14.14;72.61
24230;BME280;12362;50.004;8.006;2024-02-28T12:32:28;101112.59;;;14.36;71.95
24230;BME280;12362;50.004;8.006;2024-02-28T12:34:53;101108.56;;;14.46;69.08
24230;BME280;12362;50.004;8.006;2024-02-28T12:37:19;101113.88;;;13.95;70.45
24230;BME280;12362;50.004;8.006;2024-02-28T12:39:45;101113.72;;;13.64;75.86
24230;BME280;12362;50.004;8.006;2024-02-28T12:42:12;101097.53;;;13.75;73.17
24230;BME280;12362;50.004;8.006;2024-02-28T12:44:38;101092.34;;;14.56;72.80
24230;BME280;12362;50.004;8.006;2024-02-28T12:47:06;101098.16;;;14.61;66.79